createdAt,value
2022-09-28T00:01:20.202Z,7.40
2022-09-28T00:03:49.647Z,5.65
2022-09-28T00:06:21.759Z,5.55
2022-09-28T00:08:52.400Z,6.70
2022-09-28T00:11:21.786Z,7.10
2022-09-28T00:13:51.752Z,8.52
2022-09-28T00:16:24.320Z,7.90
2022-09-28T00:18:52.357Z,7.50
2022-09-28T00:21:22.689Z,8.90
2022-09-28T00:24:13.021Z,8.93
2022-09-28T00:26:45.097Z,8.45
2022-09-28T00:29:21.000Z,9.15
2022-09-28T00:31:52.272Z,8.82
2022-09-28T00:34:20.675Z,9.93
2022-09-28T00:36:48.814Z,9.60
2022-09-28T00:39:17.468Z,8.65
2022-09-28T00:41:46.619Z,8.60
2022-09-28T00:44:25.955Z,9.05
2022-09-28T00:47:02.221Z,10.23
2022-09-28T00:49:45.605Z,9.13
2022-09-28T00:52:19.161Z,9.35
2022-09-28T00:57:17.334Z,9.77
2022-09-28T00:59:45.092Z,10.27
2022-09-28T01:02:12.748Z,10.57
2022-09-28T01:04:40.273Z,10.60
2022-09-28T01:07:09.224Z,9.75
2022-09-28T01:09:40.726Z,9.95
2022-09-28T01:12:08.589Z,8.50
2022-09-28T01:14:36.222Z,7.22
2022-09-28T01:17:29.811Z,6.30
2022-09-28T01:20:32.623Z,5.72
2022-09-28T01:23:44.709Z,5.28
2022-09-28T01:26:23.986Z,4.95
2022-09-28T01:29:00.363Z,4.72
2022-09-28T01:31:33.880Z,5.95
2022-09-28T01:36:42.894Z,4.18
2022-09-28T01:39:15.632Z,2.92
2022-09-28T01:41:48.326Z,2.88
2022-09-28T01:44:20.056Z,3.30
2022-09-28T01:46:50.183Z,2.75
2022-09-28T01:49:23.021Z,2.78
2022-09-28T01:51:59.873Z,2.80
2022-09-28T01:54:36.330Z,2.50
2022-09-28T01:57:27.384Z,3.30
2022-09-28T02:00:04.519Z,3.33
2022-09-28T02:02:54.681Z,4.68
2022-09-28T02:05:38.734Z,3.38
2022-09-28T02:08:15.421Z,3.28
2022-09-28T02:10:49.951Z,3.15
2022-09-28T02:13:49.702Z,4.00
2022-09-28T02:16:39.768Z,3.28
2022-09-28T02:19:17.105Z,3.15
2022-09-28T02:21:50.641Z,3.30
2022-09-28T02:24:25.324Z,3.40
2022-09-28T02:26:59.177Z,3.50
2022-09-28T02:29:33.101Z,3.38
2022-09-28T02:32:00.643Z,3.40
2022-09-28T02:34:28.314Z,3.28
2022-09-28T02:36:55.992Z,3.28
2022-09-28T02:39:24.074Z,3.25
2022-09-28T02:42:14.778Z,3.13
2022-09-28T02:45:06.432Z,3.35
2022-09-28T02:47:52.148Z,3.88
2022-09-28T02:50:39.451Z,4.13
2022-09-28T02:53:44.642Z,3.85
2022-09-28T02:56:30.571Z,3.70
2022-09-28T02:59:16.037Z,3.15
2022-09-28T03:02:03.871Z,4.95
2022-09-28T03:05:00.928Z,3.83
2022-09-28T03:07:36.910Z,3.50
2022-09-28T03:12:36.588Z,3.65
2022-09-28T03:15:11.250Z,4.53
2022-09-28T03:17:39.812Z,3.65
2022-09-28T03:20:10.255Z,4.00
2022-09-28T03:22:38.811Z,3.97
2022-09-28T03:25:07.601Z,3.65
2022-09-28T03:27:36.812Z,4.22
2022-09-28T03:30:05.372Z,4.22
2022-09-28T03:32:33.839Z,4.25
2022-09-28T03:35:01.659Z,4.30
2022-09-28T03:38:02.407Z,4.20
2022-09-28T03:41:15.684Z,4.35
2022-09-28T03:43:43.888Z,4.05
2022-09-28T03:46:13.709Z,3.92
2022-09-28T03:48:46.038Z,3.97
2022-09-28T03:51:14.234Z,4.50
2022-09-28T03:53:41.885Z,5.10
2022-09-28T03:56:14.262Z,4.40
2022-09-28T03:58:42.528Z,4.43
2022-09-28T04:01:16.778Z,4.93
2022-09-28T04:03:46.876Z,4.40
2022-09-28T04:06:14.876Z,4.63
2022-09-28T04:08:43.372Z,5.30
2022-09-28T04:11:11.871Z,5.03
2022-09-28T04:13:39.613Z,4.43
2022-09-28T04:16:11.521Z,4.40
2022-09-28T04:18:40.229Z,4.75
2022-09-28T04:21:25.842Z,4.50
2022-09-28T04:24:02.241Z,5.18
2022-09-28T04:26:30.425Z,4.70
2022-09-28T04:29:16.702Z,5.53
2022-09-28T04:31:55.405Z,4.90
2022-09-28T04:34:36.568Z,4.65
2022-09-28T04:37:06.330Z,5.70
2022-09-28T04:39:34.125Z,4.97
2022-09-28T04:42:01.894Z,5.93
2022-09-28T04:44:29.893Z,5.00
2022-09-28T04:47:05.896Z,5.22
2022-09-28T04:49:35.492Z,5.28
2022-09-28T04:52:17.844Z,5.13
2022-09-28T04:54:47.949Z,5.95
2022-09-28T04:57:15.480Z,5.78
2022-09-28T04:59:43.014Z,5.85
2022-09-28T05:02:10.935Z,5.53
2022-09-28T05:04:58.877Z,6.32
2022-09-28T05:07:46.056Z,6.43
2022-09-28T05:10:13.948Z,5.40
2022-09-28T05:12:41.822Z,6.90
2022-09-28T05:15:11.125Z,5.75
2022-09-28T05:17:38.878Z,5.68
2022-09-28T05:20:06.996Z,4.78
2022-09-28T05:22:34.587Z,5.05
2022-09-28T05:25:03.033Z,4.78
2022-09-28T05:27:36.844Z,4.15
2022-09-28T05:30:10.885Z,4.07
2022-09-28T05:32:57.004Z,4.05
2022-09-28T05:35:31.449Z,3.35
2022-09-28T05:38:04.600Z,3.10
2022-09-28T05:40:32.875Z,2.88
2022-09-28T05:43:02.073Z,3.65
2022-09-28T05:45:30.307Z,3.33
2022-09-28T05:47:57.744Z,3.33
2022-09-28T05:50:25.366Z,2.70
2022-09-28T05:53:08.378Z,4.22
2022-09-28T05:55:37.863Z,3.25
2022-09-28T05:58:07.114Z,2.75
2022-09-28T06:00:36.204Z,3.15
2022-09-28T06:03:09.248Z,2.33
2022-09-28T06:08:10.329Z,2.42
2022-09-28T06:10:40.013Z,2.30
2022-09-28T06:13:08.595Z,2.28
2022-09-28T06:15:36.766Z,2.00
2022-09-28T06:18:11.725Z,2.00
2022-09-28T06:20:52.183Z,1.75
2022-09-28T06:23:29.295Z,1.60
2022-09-28T06:25:59.724Z,1.40
2022-09-28T06:28:28.048Z,1.10
2022-09-28T06:30:56.737Z,1.15
2022-09-28T06:33:25.702Z,1.50
2022-09-28T06:36:11.830Z,0.80
2022-09-28T06:38:39.417Z,0.90
2022-09-28T06:41:07.142Z,0.77
2022-09-28T06:43:35.253Z,0.90
2022-09-28T06:46:26.017Z,0.60
2022-09-28T06:49:19.475Z,1.00
2022-09-28T06:52:06.184Z,1.65
2022-09-28T06:54:52.541Z,0.82
2022-09-28T06:57:29.208Z,1.13
2022-09-28T06:59:56.730Z,0.98
2022-09-28T07:02:24.300Z,0.98
2022-09-28T07:05:03.945Z,0.80
2022-09-28T07:07:57.938Z,1.02
2022-09-28T07:10:48.818Z,2.05
2022-09-28T07:13:48.634Z,0.98
2022-09-28T07:16:22.715Z,0.70
2022-09-28T07:18:53.613Z,0.80
2022-09-28T07:21:29.114Z,0.70
2022-09-28T07:24:01.242Z,0.90
2022-09-28T07:27:04.552Z,0.65
2022-09-28T07:29:55.088Z,0.73
2022-09-28T07:32:32.207Z,0.73
2022-09-28T07:35:16.077Z,1.02
2022-09-28T07:37:49.774Z,0.85
2022-09-28T07:40:35.976Z,0.90
2022-09-28T07:43:05.487Z,1.15
2022-09-28T07:45:36.198Z,0.52
2022-09-28T07:48:04.567Z,1.23
2022-09-28T07:50:56.880Z,0.70
2022-09-28T07:53:32.778Z,0.82
2022-09-28T07:59:09.991Z,0.63
2022-09-28T08:01:40.232Z,0.60
2022-09-28T08:04:10.255Z,0.80
2022-09-28T08:06:40.520Z,0.50
2022-09-28T08:09:09.806Z,0.40
2022-09-28T08:11:57.476Z,0.43
2022-09-28T08:14:37.660Z,0.80
2022-09-28T08:17:31.350Z,0.70
2022-09-28T08:20:19.479Z,0.43
2022-09-28T08:22:47.098Z,0.60
2022-09-28T08:25:14.788Z,0.60
2022-09-28T08:27:42.311Z,0.60
2022-09-28T08:30:10.630Z,0.50
2022-09-28T08:32:49.382Z,0.35
2022-09-28T08:35:35.183Z,0.43
2022-09-28T08:38:13.230Z,0.40
2022-09-28T08:41:09.986Z,0.60
2022-09-28T08:44:24.109Z,0.52
2022-09-28T08:47:35.033Z,0.30
2022-09-28T08:50:28.737Z,0.35
2022-09-28T08:53:43.247Z,0.60
2022-09-28T08:56:29.286Z,0.50
2022-09-28T08:59:02.427Z,0.60
2022-09-28T09:01:40.544Z,0.60
2022-09-28T09:04:13.514Z,0.60
2022-09-28T09:07:10.116Z,0.43
2022-09-28T09:10:01.140Z,0.60
2022-09-28T09:13:14.108Z,0.40
2022-09-28T09:16:24.331Z,0.80
2022-09-28T09:19:16.676Z,0.50
2022-09-28T09:22:41.142Z,0.52
2022-09-28T09:25:15.449Z,0.50
2022-09-28T09:28:22.085Z,0.70
2022-09-28T09:31:09.334Z,0.60
2022-09-28T09:33:52.255Z,0.63
2022-09-28T09:37:06.780Z,0.60
2022-09-28T09:40:18.092Z,7.95
2022-09-28T09:43:38.501Z,57.40
2022-09-28T09:47:08.141Z,18.20
2022-09-28T09:50:05.443Z,30.67
2022-09-28T09:52:54.996Z,20.13
2022-09-28T09:55:35.257Z,31.73
2022-09-28T09:58:31.782Z,30.50
2022-09-28T10:01:19.137Z,15.77
2022-09-28T10:04:15.604Z,30.45
2022-09-28T10:06:43.850Z,35.45
2022-09-28T10:09:20.781Z,46.55
2022-09-28T10:11:50.306Z,40.40
2022-09-28T10:14:24.501Z,33.58
2022-09-28T10:17:03.990Z,9.25
2022-09-28T10:20:04.187Z,38.80
2022-09-28T10:22:52.262Z,12.90
2022-09-28T10:25:20.435Z,20.83
2022-09-28T10:27:52.371Z,4.38
2022-09-28T10:30:25.486Z,8.05
2022-09-28T10:32:59.302Z,9.35
2022-09-28T10:35:42.141Z,1.00
2022-09-28T10:38:18.635Z,3.00
2022-09-28T10:41:00.942Z,14.02
2022-09-28T10:44:08.930Z,4.80
2022-09-28T10:47:17.032Z,5.72
2022-09-28T10:49:49.347Z,5.25
2022-09-28T10:52:40.461Z,4.30
2022-09-28T10:55:32.356Z,6.55
2022-09-28T10:58:00.776Z,18.90
2022-09-28T11:00:43.590Z,6.80
2022-09-28T11:03:26.680Z,11.02
2022-09-28T11:06:06.156Z,11.13
2022-09-28T11:08:41.907Z,3.88
2022-09-28T11:11:20.025Z,5.53
2022-09-28T11:14:03.615Z,1.70
2022-09-28T11:16:37.061Z,3.72
2022-09-28T11:19:20.821Z,1.25
2022-09-28T11:21:49.748Z,1.00
2022-09-28T11:24:21.152Z,1.40
2022-09-28T11:26:57.104Z,1.13
2022-09-28T11:29:52.991Z,1.30
2022-09-28T11:32:44.618Z,0.55
2022-09-28T11:35:25.470Z,0.98
2022-09-28T11:38:00.043Z,1.10
2022-09-28T11:41:12.141Z,1.20
2022-09-28T11:43:51.987Z,1.02
2022-09-28T11:46:26.103Z,1.30
2022-09-28T11:49:07.206Z,1.60
2022-09-28T11:51:38.088Z,0.90
2022-09-28T11:54:16.788Z,1.33
2022-09-28T11:56:49.814Z,1.73
2022-09-28T11:59:24.573Z,1.70
2022-09-28T12:01:57.180Z,2.17
2022-09-28T12:04:42.771Z,2.22
2022-09-28T12:07:25.438Z,2.35
2022-09-28T12:09:56.306Z,1.70
2022-09-28T12:12:25.836Z,1.48
2022-09-28T12:15:01.188Z,1.13
2022-09-28T12:17:45.444Z,1.37
2022-09-28T12:20:18.069Z,1.45
2022-09-28T12:23:03.371Z,1.70
2022-09-28T12:25:40.787Z,1.70
2022-09-28T12:28:15.789Z,1.50
2022-09-28T12:30:45.293Z,1.33
2022-09-28T12:33:16.001Z,1.60
2022-09-28T12:36:07.576Z,1.17
2022-09-28T12:39:08.357Z,2.13
2022-09-28T12:42:15.151Z,1.20
2022-09-28T12:44:45.580Z,1.63
2022-09-28T12:47:47.103Z,1.40
2022-09-28T12:50:39.588Z,1.40
2022-09-28T12:53:38.366Z,1.00
2022-09-28T12:56:24.299Z,1.30
2022-09-28T12:59:09.107Z,1.35
2022-09-28T13:01:52.815Z,1.80
2022-09-28T13:04:54.046Z,1.90
2022-09-28T13:07:37.927Z,1.08
2022-09-28T13:10:23.609Z,1.90
2022-09-28T13:12:58.331Z,1.23
2022-09-28T13:15:39.750Z,1.40
2022-09-28T13:18:31.345Z,1.83
2022-09-28T13:21:09.744Z,1.45
2022-09-28T13:23:46.712Z,1.20
2022-09-28T13:26:23.783Z,1.52
2022-09-28T13:28:54.856Z,1.17
2022-09-28T13:31:33.057Z,1.42
2022-09-28T13:34:04.638Z,1.10
2022-09-28T13:36:32.055Z,1.25
2022-09-28T13:39:02.830Z,1.20
2022-09-28T13:41:40.520Z,1.10
2022-09-28T13:44:11.138Z,1.25
2022-09-28T13:47:20.471Z,1.30
2022-09-28T13:50:21.120Z,1.30
2022-09-28T13:53:13.493Z,1.42
2022-09-28T13:55:50.802Z,1.20
2022-09-28T13:58:26.402Z,1.08
2022-09-28T14:01:02.402Z,1.60
2022-09-28T14:03:43.640Z,1.40
2022-09-28T14:06:27.559Z,1.60
2022-09-28T14:09:13.125Z,1.20
2022-09-28T14:11:43.164Z,1.52
2022-09-28T14:14:12.028Z,1.48
2022-09-28T14:16:42.170Z,1.63
2022-09-28T14:19:24.343Z,1.33
2022-09-28T14:21:58.257Z,1.55
2022-09-28T14:24:53.560Z,1.30
2022-09-28T14:27:30.258Z,1.30
2022-09-28T14:30:12.545Z,1.48
2022-09-28T14:32:43.192Z,0.93
2022-09-28T14:35:19.221Z,1.20
2022-09-28T14:38:08.628Z,1.52
2022-09-28T14:41:10.008Z,1.38
2022-09-28T14:43:58.228Z,1.20
2022-09-28T14:46:25.730Z,1.17
2022-09-28T14:48:53.366Z,1.33
2022-09-28T14:51:26.988Z,1.33
2022-09-28T14:54:02.328Z,1.40
2022-09-28T14:56:34.006Z,0.82
2022-09-28T14:59:02.456Z,1.10
2022-09-28T15:01:30.549Z,0.98
2022-09-28T15:04:04.631Z,1.42
2022-09-28T15:06:49.425Z,1.17
2022-09-28T15:09:35.176Z,1.02
2022-09-28T15:12:03.682Z,1.10
2022-09-28T15:14:34.465Z,1.50
2022-09-28T15:17:09.928Z,1.10
2022-09-28T15:20:17.252Z,1.63
2022-09-28T15:22:49.315Z,1.50
2022-09-28T15:25:20.364Z,1.13
2022-09-28T15:27:56.465Z,1.10
2022-09-28T15:30:34.960Z,0.85
2022-09-28T15:33:22.650Z,1.42
2022-09-28T15:36:01.991Z,1.63
2022-09-28T15:38:32.420Z,1.20
2022-09-28T15:41:05.797Z,0.90
2022-09-28T15:46:18.494Z,1.40
2022-09-28T15:48:59.695Z,1.20
2022-09-28T15:51:29.529Z,1.20
2022-09-28T15:54:16.638Z,1.15
2022-09-28T15:57:28.312Z,1.20
2022-09-28T15:59:59.566Z,1.17
2022-09-28T16:02:27.736Z,0.90
2022-09-28T16:04:59.021Z,1.00
2022-09-28T16:07:38.480Z,1.00
2022-09-28T16:10:12.042Z,0.88
2022-09-28T16:15:28.378Z,1.95
2022-09-28T16:18:03.092Z,1.10
2022-09-28T16:20:35.638Z,1.02
2022-09-28T16:23:20.287Z,1.92
2022-09-28T16:26:02.118Z,1.25
2022-09-28T16:28:38.614Z,0.95
2022-09-28T16:31:21.451Z,1.27
2022-09-28T16:33:52.255Z,1.73
2022-09-28T16:36:22.113Z,1.33
2022-09-28T16:38:50.008Z,1.90
2022-09-28T16:41:22.952Z,1.70
2022-09-28T16:43:56.448Z,1.23
2022-09-28T16:46:32.830Z,1.20
2022-09-28T16:49:03.110Z,1.10
2022-09-28T16:51:30.546Z,1.30
2022-09-28T16:54:35.121Z,1.45
2022-09-28T16:57:04.271Z,0.80
2022-09-28T16:59:32.160Z,1.45
2022-09-28T17:01:59.685Z,1.02
2022-09-28T17:04:27.900Z,1.85
2022-09-28T17:06:56.512Z,1.80
2022-09-28T17:09:24.251Z,1.40
2022-09-28T17:11:57.190Z,1.40
2022-09-28T17:14:24.828Z,1.17
2022-09-28T17:19:42.511Z,1.35
2022-09-28T17:22:10.599Z,2.75
2022-09-28T17:24:38.170Z,1.40
2022-09-28T17:27:07.109Z,2.10
2022-09-28T17:29:34.698Z,2.20
2022-09-28T17:32:02.577Z,1.65
2022-09-28T17:34:30.092Z,2.03
2022-09-28T17:36:57.554Z,1.92
2022-09-28T17:39:25.390Z,2.70
2022-09-28T17:41:53.226Z,2.53
2022-09-28T17:44:21.082Z,2.30
2022-09-28T17:46:49.817Z,1.63
2022-09-28T17:49:17.951Z,2.35
2022-09-28T17:51:45.653Z,2.28
2022-09-28T17:54:14.120Z,1.83
2022-09-28T17:56:42.668Z,1.58
2022-09-28T17:59:14.516Z,1.90
2022-09-28T18:01:42.154Z,1.80
2022-09-28T18:04:19.195Z,1.55
2022-09-28T18:06:51.663Z,1.80
2022-09-28T18:09:25.252Z,1.73
2022-09-28T18:12:00.443Z,1.75
2022-09-28T18:14:28.709Z,1.65
2022-09-28T18:16:56.867Z,1.80
2022-09-28T18:19:27.488Z,1.98
2022-09-28T18:21:59.066Z,1.52
2022-09-28T18:24:26.689Z,2.00
2022-09-28T18:26:54.219Z,2.38
2022-09-28T18:29:21.781Z,1.30
2022-09-28T18:31:49.520Z,2.00
2022-09-28T18:34:17.407Z,1.80
2022-09-28T18:36:45.636Z,2.30
2022-09-28T18:39:13.204Z,1.60
2022-09-28T18:41:42.361Z,2.00
2022-09-28T18:44:10.543Z,1.88
2022-09-28T18:46:38.702Z,1.70
2022-09-28T18:49:06.731Z,1.70
2022-09-28T18:51:34.536Z,1.90
2022-09-28T18:54:07.565Z,1.90
2022-09-28T18:56:38.083Z,2.28
2022-09-28T18:59:11.273Z,1.52
2022-09-28T19:01:41.591Z,1.63
2022-09-28T19:04:11.159Z,1.60
2022-09-28T19:06:40.794Z,1.50
2022-09-28T19:09:09.246Z,2.15
2022-09-28T19:11:36.978Z,2.00
2022-09-28T19:14:04.559Z,2.10
2022-09-28T19:16:34.119Z,2.40
2022-09-28T19:19:03.140Z,1.95
2022-09-28T19:21:30.833Z,2.55
2022-09-28T19:24:02.979Z,2.15
2022-09-28T19:26:32.091Z,2.45
2022-09-28T19:28:59.935Z,2.40
2022-09-28T19:31:28.945Z,2.00
2022-09-28T19:33:57.312Z,2.42
2022-09-28T19:36:28.725Z,2.15
2022-09-28T19:38:58.633Z,3.30
2022-09-28T19:41:49.517Z,2.33
2022-09-28T19:44:25.092Z,2.33
2022-09-28T19:46:56.324Z,2.83
2022-09-28T19:49:25.671Z,2.97
2022-09-28T19:52:15.168Z,2.72
2022-09-28T19:54:45.634Z,2.75
2022-09-28T19:57:16.045Z,2.80
2022-09-28T19:59:44.433Z,2.70
2022-09-28T20:02:13.432Z,3.70
2022-09-28T20:04:44.078Z,3.35
2022-09-28T20:07:11.826Z,3.47
2022-09-28T20:09:39.669Z,3.05
2022-09-28T20:12:07.348Z,3.70
2022-09-28T20:14:38.197Z,3.35
2022-09-28T20:17:08.003Z,5.68
2022-09-28T20:19:36.148Z,4.07
2022-09-28T20:22:04.090Z,3.88
2022-09-28T20:24:32.643Z,3.97
2022-09-28T20:27:01.486Z,3.60
2022-09-28T20:29:31.737Z,3.85
2022-09-28T20:31:59.438Z,3.20
2022-09-28T20:34:27.243Z,4.28
2022-09-28T20:36:55.332Z,3.53
2022-09-28T20:39:22.839Z,4.00
2022-09-28T20:41:50.543Z,4.00
2022-09-28T20:44:18.410Z,3.95
2022-09-28T20:46:49.938Z,3.78
2022-09-28T20:49:17.641Z,4.20
2022-09-28T20:51:45.250Z,4.13
2022-09-28T20:54:12.694Z,3.97
2022-09-28T20:56:40.430Z,3.78
2022-09-28T20:59:11.409Z,3.25
2022-09-28T21:01:39.767Z,3.35
2022-09-28T21:04:09.012Z,3.30
2022-09-28T21:06:39.107Z,3.00
2022-09-28T21:09:08.073Z,3.30
2022-09-28T21:11:35.978Z,2.90
2022-09-28T21:14:06.366Z,2.80
2022-09-28T21:16:35.184Z,3.42
2022-09-28T21:19:03.585Z,3.50
2022-09-28T21:21:31.379Z,2.42
2022-09-28T21:23:59.097Z,2.83
2022-09-28T21:26:29.153Z,2.88
2022-09-28T21:29:02.435Z,3.35
2022-09-28T21:31:32.946Z,2.78
2022-09-28T21:34:00.834Z,2.30
2022-09-28T21:36:28.572Z,2.08
2022-09-28T21:38:56.166Z,3.05
2022-09-28T21:41:24.825Z,2.80
2022-09-28T21:43:52.887Z,3.20
2022-09-28T21:46:20.901Z,3.80
2022-09-28T21:48:56.344Z,3.40
2022-09-28T21:51:24.548Z,3.25
2022-09-28T21:53:52.647Z,2.72
2022-09-28T21:56:20.851Z,2.72
2022-09-28T21:58:49.022Z,2.53
2022-09-28T22:01:22.863Z,2.10
2022-09-28T22:03:54.121Z,3.03
2022-09-28T22:06:23.557Z,2.33
2022-09-28T22:08:51.633Z,2.53
2022-09-28T22:11:21.455Z,2.63
2022-09-28T22:13:57.508Z,2.50
2022-09-28T22:16:30.722Z,2.65
2022-09-28T22:18:59.605Z,2.20
2022-09-28T22:21:29.988Z,3.42
2022-09-28T22:24:02.902Z,2.58
2022-09-28T22:26:31.909Z,2.20
2022-09-28T22:29:01.899Z,2.22
2022-09-28T22:31:32.089Z,2.40
2022-09-28T22:33:59.987Z,2.20
2022-09-28T22:36:28.037Z,2.22
2022-09-28T22:38:56.999Z,2.13
2022-09-28T22:41:25.022Z,2.17
2022-09-28T22:43:53.737Z,2.10
2022-09-28T22:46:26.729Z,2.78
2022-09-28T22:48:56.280Z,2.10
2022-09-28T22:51:25.326Z,3.17
2022-09-28T22:53:52.983Z,3.05
2022-09-28T22:56:20.391Z,1.88
2022-09-28T22:58:48.043Z,1.85
2022-09-28T23:01:21.228Z,2.38
2022-09-28T23:03:50.281Z,2.25
2022-09-28T23:06:21.065Z,2.28
2022-09-28T23:08:50.337Z,1.88
2022-09-28T23:11:18.716Z,2.13
2022-09-28T23:13:57.770Z,3.03
2022-09-28T23:16:26.830Z,2.15
2022-09-28T23:18:55.662Z,2.60
2022-09-28T23:21:25.961Z,2.72
2022-09-28T23:23:59.129Z,2.67
2022-09-28T23:26:29.506Z,2.35
2022-09-28T23:28:57.434Z,2.28
2022-09-28T23:31:28.106Z,3.15
2022-09-28T23:34:01.270Z,2.70
2022-09-28T23:36:29.218Z,2.50
2022-09-28T23:38:57.047Z,2.88
2022-09-28T23:41:24.646Z,2.47
2022-09-28T23:43:52.182Z,3.03
2022-09-28T23:46:20.946Z,2.63
2022-09-28T23:48:49.348Z,2.25
2022-09-28T23:51:17.331Z,2.35
2022-09-28T23:53:45.682Z,2.63
2022-09-28T23:56:14.560Z,1.50
2022-09-28T23:58:43.040Z,1.85
